Kezdőlap
METAR-TAF:

METAR-TAF

Repülőterek :

Nancy, Franciaország

földrajzi szélesség: 48-41N, földrajzi hosszúság: 006-13E, magasság: 225 m

Jelenlegi meteorológiai megfigyelések

A jelentés 38 perccel ezelõtt készült, 11:30 UTC
Délnyugati szél 12 kt, déli és nyugati között változik
Hőmérséklet 8°C
Páratartalom 61%
Légköri nyomás 1028 hPa
Látótávolság 10 km, vagy több

METAR: LFSN 181130Z AUTO 22012KT 190V260 9999 BKN030/// OVC035/// 08/01 Q1028

Idő: 13:08 (12:08 UTC)


TAF: hiányzik

Meteorológiai megfigyelések és előrejelzések több, mint 4000 repülőtéren (METAR és TAF jelentéseket).

A térképen piros és sárga pontok jelzik az elérhető meteorológiai állomásokat.

Mozgassa az egeret a pont fölött, hogy megjelenjen az állomás neve.

Azután kattintson az időjárási megfigyelések és előrejelzések megtekintéséhez.

A térkép megváltoztatása: kattintson a fekete keresztel jelölt zöld gombra ráközelítéshez, a vonallal jelölt zöld gombra távolításhoz, vagy a zöld nyilakra a szomszédos térképek eléréséhez.


METAR-TAF: